Time;durP1;ratioP1;P1;durP2;ratioP2;P2;SDS_P1;SDS_P2;PMS_P1;PMS_P2;Temp;Humidity;BMP_temperature;BMP_pressure;BME280_temperature;BME280_humidity;BME280_pressure;Samples;Min_cycle;Max_cycle;Signal;HPM_P1;HPM_P2
2022/07/02 00:00:06;;;;;;;6.62;5.95;;;;;;;22.31;72.35;100458.38;5550192;32;33708;-86
2022/07/02 00:03:23;;;;;;;7.45;5.68;;;;;;;22.34;72.55;100456.22;5551245;32;34772;-86
2022/07/02 00:06:29;;;;;;;7.75;5.60;;;;;;;22.35;72.51;100452.53;5549512;32;34640;-86
2022/07/02 00:09:36;;;;;;;7.40;5.55;;;;;;;22.22;73.23;100460.13;5562210;32;33754;-86
2022/07/02 00:12:40;;;;;;;6.72;5.50;;;;;;;22.33;72.45;100449.12;5561571;32;35232;-86
2022/07/02 00:15:43;;;;;;;8.65;5.65;;;;;;;22.06;73.48;100453.53;5549373;32;36619;-86
2022/07/02 00:18:47;;;;;;;9.05;5.55;;;;;;;22.16;73.28;100458.91;5548704;32;34276;-86
2022/07/02 00:21:51;;;;;;;9.57;6.50;;;;;;;21.80;78.03;100456.94;5548747;32;34642;-86
2022/07/02 00:24:54;;;;;;;10.32;6.65;;;;;;;21.28;85.26;100447.37;5548191;32;33892;-87
2022/07/02 00:27:57;;;;;;;11.12;6.75;;;;;;;20.69;91.00;100455.47;5557206;32;33990;-87
2022/07/02 00:31:00;;;;;;;8.80;7.15;;;;;;;20.05;97.27;100476.44;5563813;32;34777;-87
2022/07/02 00:34:05;;;;;;;8.40;7.30;;;;;;;19.57;100.00;100480.59;5554034;32;33856;-87
2022/07/02 00:37:10;;;;;;;9.52;7.28;;;;;;;19.37;100.00;100457.09;5551014;32;34023;-87
2022/07/02 00:40:13;;;;;;;8.10;6.78;;;;;;;19.26;100.00;100439.19;5550339;32;34061;-87
2022/07/02 00:43:18;;;;;;;15.98;7.85;;;;;;;19.19;100.00;100427.28;5549476;32;33840;-87
2022/07/02 00:46:22;;;;;;;10.10;6.60;;;;;;;19.28;100.00;100414.88;5549698;32;34470;-87
2022/07/02 00:49:26;;;;;;;8.07;6.35;;;;;;;19.25;100.00;100412.44;5551063;32;33861;-87
2022/07/02 00:52:29;;;;;;;8.88;6.62;;;;;;;19.31;100.00;100416.44;5554446;32;34006;-87
2022/07/02 00:55:32;;;;;;;6.28;5.68;;;;;;;19.38;100.00;100423.87;5553509;32;33824;-87
2022/07/02 00:58:34;;;;;;;7.50;6.10;;;;;;;19.45;100.00;100432.22;5556316;32;34133;-88
2022/07/02 01:01:37;;;;;;;8.45;5.22;;;;;;;19.29;100.00;100439.91;5563738;32;34678;-88
2022/07/02 01:04:40;;;;;;;6.18;5.40;;;;;;;19.27;100.00;100434.69;5563613;32;34143;-87
2022/07/02 01:10:16;;;;;;;7.65;5.70;;;;;;;19.58;97.91;100444.63;5566132;32;35332;-88
2022/07/02 01:11:14;;;;;;;6.68;5.15;;;;;;;19.36;100.00;100435.75;5550661;31;34224;-87
2022/07/02 01:14:20;;;;;;;5.03;4.62;;;;;;;19.24;100.00;100434.94;5565819;31;33859;-88
2022/07/02 01:17:23;;;;;;;5.35;4.95;;;;;;;19.31;99.73;100429.91;5565830;32;34729;-87
2022/07/02 01:20:26;;;;;;;7.00;5.03;;;;;;;19.38;99.53;100437.31;5565355;32;34198;-87
2022/07/02 01:23:28;;;;;;;6.10;4.87;;;;;;;19.25;99.69;100437.50;5565285;32;35369;-87
2022/07/02 01:26:32;;;;;;;5.50;5.00;;;;;;;19.32;100.00;100448.59;5562902;32;34138;-87
2022/07/02 01:29:35;;;;;;;5.68;5.18;;;;;;;19.28;99.81;100463.28;5556989;32;34896;-87
2022/07/02 01:32:38;;;;;;;6.28;4.40;;;;;;;19.18;99.36;100467.72;5549936;32;34180;-87
2022/07/02 01:35:40;;;;;;;5.75;4.53;;;;;;;19.22;97.37;100467.31;5550188;32;34263;-87
2022/07/02 01:38:43;;;;;;;6.28;4.65;;;;;;;19.13;97.88;100450.13;5550079;32;34157;-87
2022/07/02 01:41:45;;;;;;;4.62;4.20;;;;;;;19.18;97.20;100462.34;5549456;32;33987;-87
2022/07/02 01:44:48;;;;;;;8.27;4.53;;;;;;;19.19;96.90;100480.19;5537081;32;32806;-87
2022/07/02 01:47:51;;;;;;;4.32;3.92;;;;;;;19.11;96.29;100476.31;5560746;32;35225;-87
2022/07/02 01:50:54;;;;;;;5.32;4.40;;;;;;;19.21;96.00;100478.25;5557371;32;34614;-87
2022/07/02 01:53:56;;;;;;;5.30;4.03;;;;;;;19.06;97.37;100480.38;5550366;32;34928;-87
2022/07/02 01:57:00;;;;;;;5.82;4.45;;;;;;;18.97;97.35;100495.41;5550278;32;34019;-87
2022/07/02 02:00:08;;;;;;;4.45;3.37;;;;;;;18.93;97.17;100494.81;5549236;32;33753;-87
2022/07/02 02:03:11;;;;;;;5.75;3.28;;;;;;;18.89;95.00;100485.31;5550648;32;34664;-87
2022/07/02 02:06:14;;;;;;;5.18;3.70;;;;;;;18.99;95.48;100497.00;5549781;32;33863;-87
2022/07/02 02:09:17;;;;;;;3.20;2.90;;;;;;;18.81;96.83;100480.56;5550153;32;33905;-87
2022/07/02 02:12:21;;;;;;;4.70;2.95;;;;;;;18.82;95.08;100462.62;5549274;32;35244;-87
2022/07/02 02:15:23;;;;;;;3.35;2.97;;;;;;;18.87;94.61;100452.34;5549892;32;33972;-87
2022/07/02 02:18:26;;;;;;;2.60;2.40;;;;;;;18.77;93.89;100443.31;5551963;32;34042;-87
2022/07/02 02:21:29;;;;;;;2.62;2.42;;;;;;;18.63;92.95;100442.66;5549729;32;34557;-87
2022/07/02 02:24:32;;;;;;;3.50;2.25;;;;;;;18.52;92.94;100429.25;5549018;32;33870;-87
2022/07/02 02:27:34;;;;;;;3.40;2.60;;;;;;;18.58;92.28;100409.94;5549361;32;34447;-87
2022/07/02 02:30:37;;;;;;;2.47;2.10;;;;;;;18.50;92.45;100393.63;5550654;32;33786;-87
2022/07/02 02:33:41;;;;;;;4.80;2.15;;;;;;;18.22;93.79;100385.16;5550711;32;34504;-87
2022/07/02 02:36:43;;;;;;;3.25;2.17;;;;;;;18.11;93.33;100399.47;5548465;32;34369;-87
2022/07/02 02:39:46;;;;;;;4.70;2.22;;;;;;;18.16;93.35;100397.25;5549068;32;33948;-87
2022/07/02 02:42:49;;;;;;;2.55;2.10;;;;;;;17.98;93.38;100421.88;5548645;32;33970;-87
2022/07/02 02:45:51;;;;;;;2.50;2.30;;;;;;;17.94;94.45;100424.94;5548721;32;33842;-87
2022/07/02 02:52:15;;;;;;;3.55;2.17;;;;;;;17.94;92.96;100433.84;5549338;32;33692;-87
2022/07/02 02:55:18;;;;;;;2.00;1.90;;;;;;;17.74;94.00;100443.47;5549568;32;34141;-87
2022/07/02 02:58:21;;;;;;;4.93;1.83;;;;;;;17.74;92.86;100457.75;5549245;32;34908;-87
2022/07/02 03:01:24;;;;;;;3.50;2.10;;;;;;;17.65;93.43;100464.69;5550985;32;33808;-87
2022/07/02 03:04:26;;;;;;;2.95;2.12;;;;;;;17.64;94.85;100457.63;5552990;32;33874;-87
2022/07/02 03:07:29;;;;;;;2.33;2.05;;;;;;;17.61;95.20;100468.56;5553461;32;34816;-89
2022/07/02 03:10:31;;;;;;;2.83;2.15;;;;;;;17.55;94.42;100471.75;5551211;32;35312;-90
2022/07/02 03:13:34;;;;;;;3.55;2.20;;;;;;;17.63;93.76;100471.16;5550728;32;35324;-91
2022/07/02 03:16:37;;;;;;;2.55;2.20;;;;;;;17.53;94.38;100492.47;5535774;32;32604;-91
2022/07/02 03:19:40;;;;;;;3.95;2.40;;;;;;;17.32;94.87;100506.56;5549557;32;34318;-87
2022/07/02 03:22:42;;;;;;;2.37;2.05;;;;;;;17.31;95.91;100509.34;5549892;32;34855;-88
2022/07/02 03:25:45;;;;;;;2.95;2.33;;;;;;;17.27;96.31;100503.38;5556610;32;34018;-88
2022/07/02 03:28:48;;;;;;;3.85;2.60;;;;;;;17.28;96.50;100498.84;5565453;32;35245;-88
2022/07/02 03:31:50;;;;;;;4.60;2.42;;;;;;;17.28;95.92;100504.22;5550470;32;33844;-87
2022/07/02 03:34:53;;;;;;;3.08;2.35;;;;;;;17.44;95.85;100523.53;5563032;32;34602;-86
2022/07/02 03:37:56;;;;;;;2.53;2.42;;;;;;;17.46;95.37;100518.87;5537409;32;32814;-87
2022/07/02 03:40:58;;;;;;;2.95;2.75;;;;;;;17.37;95.62;100525.84;5561210;32;34709;-87
2022/07/02 03:44:01;;;;;;;2.90;2.67;;;;;;;17.51;95.57;100537.34;5562497;32;34875;-87
2022/07/02 03:47:04;;;;;;;3.08;2.72;;;;;;;17.48;95.30;100524.16;5551177;32;34038;-87
2022/07/02 03:50:07;;;;;;;2.90;2.65;;;;;;;17.54;96.07;100529.03;5551825;32;34028;-88
2022/07/02 03:53:10;;;;;;;2.97;2.78;;;;;;;17.65;95.07;100536.25;5547838;32;33887;-87
2022/07/02 03:56:12;;;;;;;3.60;3.10;;;;;;;17.63;94.86;100531.03;5548034;32;34702;-87
2022/07/02 03:59:15;;;;;;;2.80;2.60;;;;;;;17.78;94.86;100530.78;5548435;32;33787;-88
2022/07/02 04:02:18;;;;;;;4.15;3.17;;;;;;;17.75;95.33;100539.94;5548429;32;34047;-87
2022/07/02 04:05:21;;;;;;;5.18;2.97;;;;;;;17.85;94.10;100555.34;5548626;32;35023;-87
2022/07/02 04:08:23;;;;;;;5.28;3.05;;;;;;;17.97;93.46;100548.13;5549109;32;34348;-87
2022/07/02 04:11:26;;;;;;;3.60;3.30;;;;;;;18.00;93.00;100547.91;5549784;32;33972;-87
2022/07/02 04:14:29;;;;;;;4.07;3.33;;;;;;;17.93;93.71;100555.56;5550367;32;34514;-86
2022/07/02 04:17:31;;;;;;;4.03;2.80;;;;;;;17.97;92.74;100561.56;5549948;32;35058;-87
2022/07/02 04:20:34;;;;;;;6.50;3.12;;;;;;;18.20;92.25;100569.66;5549802;32;34166;-87
2022/07/02 04:23:37;;;;;;;3.78;2.95;;;;;;;18.17;92.41;100579.66;5554033;32;33789;-87
2022/07/02 04:26:39;;;;;;;4.68;3.25;;;;;;;18.30;91.16;100578.69;5564665;32;34699;-87
2022/07/02 04:29:42;;;;;;;6.00;3.00;;;;;;;18.42;90.47;100583.06;5555071;32;184514;-86
2022/07/02 04:32:44;;;;;;;3.03;2.83;;;;;;;18.64;89.30;100592.13;5550478;32;34648;-88
2022/07/02 04:35:47;;;;;;;3.50;3.20;;;;;;;18.67;89.75;100604.44;5550982;32;33950;-87
2022/07/02 04:38:50;;;;;;;4.03;3.12;;;;;;;18.58;89.35;100595.28;5550339;32;35146;-87
2022/07/02 04:41:53;;;;;;;4.95;3.25;;;;;;;18.83;87.78;100598.69;5552027;32;34671;-86
2022/07/02 04:44:55;;;;;;;3.92;2.90;;;;;;;18.99;87.12;100609.03;5560435;32;34289;-87
2022/07/02 04:47:58;;;;;;;3.50;3.10;;;;;;;19.06;86.55;100604.88;5549392;32;34402;-88
2022/07/02 04:51:01;;;;;;;4.85;3.22;;;;;;;18.91;87.31;100609.66;5549516;32;33838;-89
2022/07/02 04:54:04;;;;;;;4.35;3.30;;;;;;;18.89;87.82;100632.25;5555114;32;35019;-87
2022/07/02 04:57:07;;;;;;;4.28;3.30;;;;;;;19.04;86.92;100631.06;5552320;32;33894;-87
2022/07/02 05:00:11;;;;;;;5.50;3.12;;;;;;;19.60;84.17;100650.69;5535773;32;33212;-88
2022/07/02 05:03:14;;;;;;;3.20;2.90;;;;;;;19.79;82.69;100643.75;5547706;32;34380;-88
2022/07/02 05:06:19;;;;;;;3.85;3.45;;;;;;;19.65;82.48;100645.78;5548143;32;34597;-87
2022/07/02 05:09:24;;;;;;;3.62;3.33;;;;;;;19.68;82.17;100641.97;5548598;32;35117;-87
2022/07/02 05:12:27;;;;;;;7.82;3.08;;;;;;;20.16;79.83;100640.63;5554598;32;35064;-87
2022/07/02 05:15:30;;;;;;;5.68;3.40;;;;;;;20.53;77.91;100652.75;5551895;32;34328;-86
2022/07/02 05:18:32;;;;;;;4.47;3.47;;;;;;;20.60;77.46;100658.41;5549759;32;33735;-86
2022/07/02 05:21:37;;;;;;;4.15;3.22;;;;;;;20.96;75.66;100658.00;5548956;32;34024;-87
2022/07/02 05:24:40;;;;;;;6.00;3.10;;;;;;;21.67;72.89;100667.78;5548248;32;33640;-87
2022/07/02 05:27:43;;;;;;;5.62;2.90;;;;;;;23.28;66.03;100691.37;5548712;32;34510;-87
2022/07/02 05:30:46;;;;;;;3.00;2.72;;;;;;;24.72;59.90;100696.81;5533592;32;34331;-87
2022/07/02 05:33:49;;;;;;;4.68;2.70;;;;;;;26.12;55.41;100697.31;5548601;32;34566;-87
2022/07/02 05:36:51;;;;;;;4.82;2.90;;;;;;;26.06;54.60;100695.28;5554128;32;34890;-87
2022/07/02 05:39:54;;;;;;;4.15;2.72;;;;;;;27.57;50.49;100697.31;5559861;32;34148;-87
2022/07/02 05:42:57;;;;;;;4.37;3.12;;;;;;;28.41;46.78;100711.97;5551848;32;35158;-92
2022/07/02 05:45:59;;;;;;;5.78;2.87;;;;;;;27.27;49.79;100711.66;5550778;32;33872;-92
2022/07/02 05:49:02;;;;;;;3.10;2.80;;;;;;;26.96;49.97;100722.50;5545569;32;33162;-92
2022/07/02 05:52:05;;;;;;;3.33;2.80;;;;;;;26.89;50.35;100727.75;5565168;32;35163;-91
2022/07/02 05:55:08;;;;;;;3.05;2.80;;;;;;;27.71;48.82;100723.81;5564155;32;35203;-87
2022/07/02 05:58:12;;;;;;;3.30;2.75;;;;;;;27.99;47.74;100719.69;5558746;32;34052;-87
2022/07/02 06:01:15;;;;;;;3.78;2.78;;;;;;;28.65;46.39;100729.13;5553467;32;34257;-88
2022/07/02 06:04:18;;;;;;;4.05;2.87;;;;;;;29.01;45.06;100735.75;5551332;32;34821;-88
2022/07/02 06:07:39;;;;;;;5.15;3.17;;;;;;;29.22;43.99;100728.66;5551198;32;34503;-87
2022/07/02 06:10:41;;;;;;;4.72;2.92;;;;;;;29.09;44.22;100737.50;5551108;32;34129;-87
2022/07/02 06:13:44;;;;;;;5.00;2.78;;;;;;;28.68;44.77;100727.91;5550704;32;34662;-89
2022/07/02 06:16:47;;;;;;;7.50;2.90;;;;;;;29.36;43.98;100724.19;5551025;32;33915;-87
2022/07/02 06:19:50;;;;;;;2.87;2.67;;;;;;;29.22;44.09;100729.50;5549903;32;33986;-88
2022/07/02 06:22:53;;;;;;;5.30;2.80;;;;;;;28.62;44.85;100726.78;5536402;32;32822;-88
2022/07/02 06:25:58;;;;;;;5.82;2.90;;;;;;;28.04;46.87;100722.72;5535646;32;32486;-88
2022/07/02 06:29:01;;;;;;;3.42;2.60;;;;;;;30.39;41.87;100721.22;5550224;32;34586;-88
2022/07/02 06:32:04;;;;;;;2.97;2.55;;;;;;;31.00;40.31;100721.56;5549229;32;34003;-88
2022/07/02 06:35:08;;;;;;;3.30;2.55;;;;;;;29.61;42.64;100718.41;5549037;32;34697;-88
2022/07/02 06:38:11;;;;;;;3.20;2.90;;;;;;;29.68;42.20;100714.69;5549105;32;33820;-85
2022/07/02 06:44:37;;;;;;;3.33;3.00;;;;;;;28.73;45.55;100731.78;5549862;32;34530;-86
2022/07/02 06:47:41;;;;;;;5.00;3.20;;;;;;;26.34;50.26;100730.28;5549875;32;34211;-86
2022/07/02 06:50:44;;;;;;;3.00;2.80;;;;;;;26.15;51.79;100729.59;5549257;32;33987;-86
2022/07/02 06:53:47;;;;;;;3.40;3.10;;;;;;;26.29;51.80;100730.81;5549202;32;34007;-86
2022/07/02 06:56:49;;;;;;;7.10;3.22;;;;;;;26.89;49.53;100735.94;5549276;32;34385;-86
2022/07/02 06:59:53;;;;;;;3.28;3.08;;;;;;;25.70;53.41;100742.66;5535194;32;34061;-86
2022/07/02 07:02:55;;;;;;;3.70;3.22;;;;;;;26.37;52.04;100732.66;5550010;32;33785;-86
2022/07/02 07:05:58;;;;;;;4.25;3.30;;;;;;;26.79;51.23;100725.25;5536360;32;32860;-86
2022/07/02 07:09:01;;;;;;;3.70;3.20;;;;;;;27.62;48.57;100733.09;5550111;32;33875;-86
2022/07/02 07:12:05;;;;;;;3.62;3.40;;;;;;;27.22;49.10;100741.28;5550770;32;33715;-87
2022/07/02 07:15:09;;;;;;;3.67;3.37;;;;;;;26.70;50.88;100750.81;5551672;32;33851;-86
2022/07/02 07:18:12;;;;;;;5.50;3.35;;;;;;;26.39;52.24;100748.81;5552191;32;33917;-85
2022/07/02 07:21:15;;;;;;;3.87;3.58;;;;;;;25.88;52.93;100764.25;5554526;32;34848;-85
2022/07/02 07:24:19;;;;;;;3.95;3.62;;;;;;;25.11;55.46;100760.62;5558710;32;34052;-86
2022/07/02 07:27:21;;;;;;;4.07;3.67;;;;;;;25.87;53.77;100761.69;5563819;32;34513;-86
2022/07/02 07:30:24;;;;;;;3.72;3.40;;;;;;;26.03;53.18;100756.28;5563541;32;34817;-86
2022/07/02 07:33:27;;;;;;;5.72;3.40;;;;;;;26.64;51.34;100761.34;5541042;32;33719;-85
2022/07/02 07:36:30;;;;;;;4.97;3.65;;;;;;;26.43;51.73;100772.78;5551165;32;33977;-86
2022/07/02 07:39:32;;;;;;;3.50;3.30;;;;;;;25.89;52.75;100787.66;5552128;32;35273;-90
2022/07/02 07:42:35;;;;;;;3.80;3.50;;;;;;;25.89;52.22;100770.53;5549329;32;33982;-90
2022/07/02 07:45:38;;;;;;;4.05;3.65;;;;;;;26.35;51.93;100776.34;5551320;32;34239;-90
2022/07/02 07:48:41;;;;;;;5.97;3.70;;;;;;;27.23;49.22;100763.91;5549398;32;33749;-90
2022/07/02 07:51:47;;;;;;;5.78;3.55;;;;;;;27.63;48.85;100769.34;5549386;32;34014;-87
2022/07/02 07:54:50;;;;;;;4.10;3.70;;;;;;;27.56;49.19;100780.91;5549281;32;33627;-87
2022/07/02 07:57:53;;;;;;;10.98;3.97;;;;;;;28.30;47.32;100777.94;5548706;32;33859;-87
2022/07/02 08:00:56;;;;;;;4.22;3.60;;;;;;;27.68;47.65;100773.25;5548374;32;35064;-86
2022/07/02 08:03:59;;;;;;;4.43;3.92;;;;;;;27.74;48.52;100777.09;5549208;32;34475;-87
2022/07/02 08:07:01;;;;;;;6.05;3.70;;;;;;;27.70;47.90;100778.47;5551420;32;33953;-86
2022/07/02 08:10:06;;;;;;;5.87;3.60;;;;;;;28.20;45.53;100780.88;5549597;32;33961;-87
2022/07/02 08:13:08;;;;;;;4.65;3.40;;;;;;;27.22;47.86;100789.44;5549974;32;34460;-87
2022/07/02 08:16:11;;;;;;;5.72;3.70;;;;;;;27.80;47.96;100791.91;5548378;32;33569;-87
2022/07/02 08:19:14;;;;;;;4.45;3.50;;;;;;;27.95;47.40;100786.53;5535216;32;34011;-88
2022/07/02 08:22:19;;;;;;;4.50;3.90;;;;;;;27.97;46.63;100782.56;5549742;32;34612;-87
2022/07/02 08:25:22;;;;;;;3.80;3.50;;;;;;;28.02;45.97;100784.75;5549744;32;34138;-87
2022/07/02 08:28:24;;;;;;;5.90;4.22;;;;;;;27.72;46.86;100784.62;5550349;32;33528;-87
2022/07/02 08:31:27;;;;;;;5.35;3.80;;;;;;;28.05;46.88;100765.28;5559258;31;34019;-88
2022/07/02 08:34:31;;;;;;;3.60;3.30;;;;;;;29.32;43.46;100773.75;5562613;32;34743;-88
2022/07/02 08:37:33;;;;;;;3.85;3.50;;;;;;;30.03;43.09;100771.38;5554140;32;35064;-87
2022/07/02 08:40:40;;;;;;;5.55;3.78;;;;;;;30.32;42.29;100766.81;5534309;32;32366;-86
2022/07/02 08:43:44;;;;;;;3.62;3.33;;;;;;;30.64;40.57;100769.16;5533705;32;32309;-86
2022/07/02 08:46:49;;;;;;;4.50;3.72;;;;;;;29.91;41.60;100767.47;5533756;32;33266;-86
2022/07/02 08:49:53;;;;;;;5.10;3.42;;;;;;;30.73;40.56;100768.00;5547979;32;34355;-86
2022/07/02 08:52:56;;;;;;;5.05;3.60;;;;;;;30.88;39.79;100767.00;5549957;32;33968;-86
2022/07/02 08:56:03;;;;;;;4.22;3.50;;;;;;;30.59;39.85;100766.16;5551389;32;34277;-87
2022/07/02 08:59:07;;;;;;;5.22;3.60;;;;;;;30.92;40.17;100760.91;5548621;32;34115;-86
2022/07/02 09:02:14;;;;;;;5.53;4.00;;;;;;;29.43;42.02;100766.09;5548037;32;33845;-86
2022/07/02 09:05:18;;;;;;;13.07;3.70;;;;;;;30.69;39.51;100771.31;5548066;32;34824;-86
2022/07/02 09:08:22;;;;;;;6.82;3.75;;;;;;;29.53;41.59;100774.00;5535279;32;33265;-86
2022/07/02 09:11:28;;;;;;;6.10;3.75;;;;;;;30.52;40.07;100771.59;5549789;32;35139;-88
2022/07/02 09:14:32;;;;;;;6.20;3.72;;;;;;;29.85;40.89;100763.63;5536482;32;33151;-86
2022/07/02 09:17:36;;;;;;;4.97;3.80;;;;;;;30.12;41.10;100774.88;5550632;32;34368;-87
2022/07/02 09:20:38;;;;;;;5.18;4.07;;;;;;;29.62;42.17;100769.28;5559490;32;34067;-87
2022/07/02 09:23:46;;;;;;;5.60;4.03;;;;;;;29.29;41.99;100776.88;5565210;32;34250;-87
2022/07/02 09:27:01;;;;;;;4.32;3.92;;;;;;;30.45;40.31;100746.06;5565869;32;35374;-86
2022/07/02 09:30:07;;;;;;;5.72;4.00;;;;;;;30.93;39.95;100750.81;5566587;32;34061;-87
2022/07/02 09:33:33;;;;;;;4.78;3.70;;;;;;;31.24;38.64;100754.97;5553453;32;33417;-91
2022/07/02 09:36:36;;;;;;;9.27;3.62;;;;;;;31.20;37.92;100753.66;5554473;32;34040;-87
2022/07/02 09:39:40;;;;;;;4.37;3.80;;;;;;;32.70;35.87;100750.94;5552150;32;35322;-87
2022/07/02 09:42:47;;;;;;;8.27;4.28;;;;;;;32.89;35.43;100757.41;5551100;32;34390;-87
2022/07/02 09:45:49;;;;;;;5.55;3.80;;;;;;;31.03;38.39;100750.44;5550867;32;34153;-87
2022/07/02 09:49:04;;;;;;;4.28;3.83;;;;;;;31.46;37.41;100747.47;5550550;32;34404;-88
2022/07/02 09:52:14;;;;;;;7.95;4.20;;;;;;;32.34;36.08;100753.09;5551164;32;34113;-87
2022/07/02 09:55:22;;;;;;;4.28;3.55;;;;;;;33.37;34.11;100757.28;5550123;32;34214;-88
2022/07/02 09:58:26;;;;;;;6.25;3.65;;;;;;;33.74;33.38;100755.59;5549949;31;33654;-87
2022/07/02 10:01:29;;;;;;;4.43;3.65;;;;;;;33.52;33.80;100757.03;5553863;32;34667;-87
2022/07/02 10:04:33;;;;;;;9.32;4.05;;;;;;;32.22;35.69;100761.09;5550562;32;34416;-88
2022/07/02 10:07:35;;;;;;;5.03;3.40;;;;;;;32.49;34.81;100752.03;5537235;32;32540;-88
2022/07/02 10:10:38;;;;;;;4.35;3.90;;;;;;;32.70;34.42;100752.81;5557020;32;34210;-87
2022/07/02 10:13:45;;;;;;;8.43;3.97;;;;;;;33.15;34.52;100752.09;5539363;32;32744;-87
2022/07/02 10:16:49;;;;;;;5.18;3.80;;;;;;;31.24;37.32;100754.09;5551454;32;35230;-88
2022/07/02 10:19:52;;;;;;;4.60;4.15;;;;;;;30.74;38.18;100761.47;5553340;32;34061;-88
2022/07/02 10:22:59;;;;;;;4.25;3.85;;;;;;;32.19;35.54;100761.53;5558541;32;35234;-88
2022/07/02 10:26:02;;;;;;;4.03;3.53;;;;;;;32.66;35.03;100764.25;5564847;31;35143;-88
2022/07/02 10:29:06;;;;;;;4.00;3.60;;;;;;;35.02;30.91;100761.88;5565498;32;33978;-88
2022/07/02 10:32:35;;;;;;;4.40;3.83;;;;;;;34.35;31.73;100755.16;5552956;32;34159;-87
2022/07/02 10:35:38;;;;;;;8.00;4.07;;;;;;;34.83;31.07;100752.75;5551109;32;33962;-87
2022/07/02 10:38:45;;;;;;;6.37;3.85;;;;;;;34.58;31.12;100747.34;5550522;32;34486;-88
2022/07/02 10:41:48;;;;;;;4.90;3.90;;;;;;;33.60;33.58;100757.56;5550879;32;35593;-88
2022/07/02 10:44:50;;;;;;;3.87;3.65;;;;;;;33.70;32.26;100759.00;5550604;32;34182;-92
2022/07/02 10:47:54;;;;;;;7.30;3.55;;;;;;;34.05;31.94;100754.97;5549783;32;33429;-92
2022/07/02 10:50:58;;;;;;;4.05;3.65;;;;;;;32.51;34.68;100763.63;5543043;32;32760;-91
2022/07/02 10:54:06;;;;;;;8.70;3.62;;;;;;;32.70;35.15;100752.81;5555923;32;35184;-90
2022/07/02 10:57:15;;;;;;;7.53;3.70;;;;;;;32.74;34.68;100737.63;5537564;32;32417;-88
2022/07/02 11:00:25;;;;;;;;;;;;;;;32.22;35.14;100744.63;5551347;32;34421;-88
2022/07/02 11:03:28;;;;;;;7.95;4.05;;;;;;;31.51;36.54;100744.09;5551911;32;34696;-87
2022/07/02 11:06:33;;;;;;;4.43;3.50;;;;;;;31.09;36.86;100733.19;5551702;32;33970;-88
2022/07/02 11:09:46;;;;;;;7.82;3.83;;;;;;;32.76;34.47;100739.09;5552319;32;34023;-87
2022/07/02 11:13:03;;;;;;;8.13;3.45;;;;;;;33.73;32.47;100739.28;5557594;32;33807;-87
2022/07/02 11:16:25;;;;;;;3.50;3.20;;;;;;;33.36;33.22;100739.06;5564341;31;34352;-87
2022/07/02 11:19:30;;;;;;;3.70;3.40;;;;;;;32.61;34.60;100736.59;5563620;32;35058;-88
2022/07/02 11:22:34;;;;;;;10.60;3.95;;;;;;;31.88;35.33;100741.06;5553733;31;34721;-87
2022/07/02 11:25:38;;;;;;;5.07;3.70;;;;;;;30.76;37.10;100734.72;5559792;31;34637;-87
2022/07/02 11:28:41;;;;;;;5.75;4.20;;;;;;;31.31;36.26;100741.31;5562636;32;33978;-88
2022/07/02 11:31:55;;;;;;;4.87;3.78;;;;;;;30.05;38.90;100741.94;5553966;32;34057;-88
2022/07/02 11:34:58;;;;;;;5.47;3.80;;;;;;;30.12;39.12;100723.72;5564504;32;34349;-88
2022/07/02 11:38:01;;;;;;;4.28;3.70;;;;;;;30.46;38.55;100737.66;5564237;32;35288;-85
2022/07/02 11:41:18;;;;;;;4.47;3.28;;;;;;;30.39;38.36;100734.03;5539086;32;33682;-85
2022/07/02 11:44:26;;;;;;;7.25;3.78;;;;;;;30.71;36.91;100728.16;5550577;32;34104;-86
2022/07/02 11:47:28;;;;;;;5.43;3.40;;;;;;;30.33;37.48;100729.34;5552169;32;34011;-86
2022/07/02 11:50:32;;;;;;;6.03;3.40;;;;;;;30.33;37.97;100721.16;5549086;32;33846;-86
2022/07/02 11:53:36;;;;;;;4.57;3.35;;;;;;;30.52;37.64;100727.81;5550186;32;33800;-89
2022/07/02 11:56:40;;;;;;;6.80;3.55;;;;;;;31.19;36.68;100730.06;5549111;32;34055;-90
2022/07/02 11:59:51;;;;;;;3.92;3.50;;;;;;;30.54;37.40;100728.44;5548139;32;33791;-87
2022/07/02 12:02:54;;;;;;;4.47;3.72;;;;;;;30.09;38.15;100721.41;5535954;32;33513;-88
2022/07/02 12:05:57;;;;;;;5.20;3.10;;;;;;;30.55;38.07;100721.06;5548702;32;33910;-88
2022/07/02 12:09:01;;;;;;;5.57;3.28;;;;;;;30.17;37.37;100725.03;5548486;32;33739;-87
2022/07/02 12:12:05;;;;;;;6.00;3.30;;;;;;;30.87;36.58;100718.78;5549484;32;34092;-87
2022/07/02 12:15:09;;;;;;;4.57;3.55;;;;;;;30.22;38.12;100706.12;5549859;32;34011;-87
2022/07/02 12:18:20;;;;;;;7.60;3.83;;;;;;;30.31;38.25;100717.78;5534742;32;33302;-87
2022/07/02 12:21:29;;;;;;;4.10;3.50;;;;;;;29.81;38.67;100719.44;5548694;32;33767;-87
2022/07/02 12:24:35;;;;;;;8.30;3.62;;;;;;;30.20;37.94;100714.53;5548958;32;34424;-87
2022/07/02 12:27:37;;;;;;;8.73;3.70;;;;;;;30.05;38.64;100700.06;5548975;32;34670;-87
2022/07/02 12:30:52;;;;;;;4.72;3.47;;;;;;;29.87;38.50;100701.41;5548367;32;33895;-87
2022/07/02 12:33:55;;;;;;;4.18;3.60;;;;;;;29.82;39.02;100695.69;5548735;32;34171;-87
2022/07/02 12:36:59;;;;;;;4.82;3.80;;;;;;;29.83;39.37;100703.66;5547904;32;34106;-87
2022/07/02 12:40:17;;;;;;;4.12;3.72;;;;;;;30.19;37.69;100690.09;5555496;32;33619;-87
2022/07/02 12:43:21;;;;;;;7.28;3.70;;;;;;;30.05;38.17;100698.19;5560120;32;34210;-87
2022/07/02 12:46:23;;;;;;;5.12;3.67;;;;;;;30.07;38.96;100698.00;5552862;32;35381;-87
2022/07/02 12:49:26;;;;;;;6.45;3.47;;;;;;;30.39;38.30;100695.72;5547886;32;33923;-87
2022/07/02 12:52:31;;;;;;;11.23;3.67;;;;;;;30.23;38.46;100686.75;5548406;32;33819;-87
2022/07/02 12:55:36;;;;;;;4.72;3.50;;;;;;;29.97;38.09;100682.75;5547545;32;34027;-87
2022/07/02 12:58:42;;;;;;;6.65;3.62;;;;;;;29.85;38.93;100679.72;5533279;32;33929;-87
2022/07/02 13:01:45;;;;;;;4.95;3.30;;;;;;;29.23;39.40;100692.09;5533719;32;33071;-88
2022/07/02 13:04:48;;;;;;;4.62;3.50;;;;;;;29.38;39.58;100679.25;5548210;32;34619;-87
2022/07/02 13:07:50;;;;;;;4.95;3.50;;;;;;;29.58;40.10;100681.37;5548100;32;34333;-86
2022/07/02 13:10:55;;;;;;;3.78;3.47;;;;;;;29.94;38.80;100676.84;5554246;32;34240;-85
2022/07/02 13:13:58;;;;;;;4.35;3.75;;;;;;;30.03;39.19;100681.13;5561620;32;34227;-86
2022/07/02 13:17:01;;;;;;;3.78;3.47;;;;;;;30.03;38.68;100670.19;5536908;32;34075;-87
2022/07/02 13:20:25;;;;;;;5.90;3.58;;;;;;;30.02;38.53;100675.84;5548545;32;34317;-87
2022/07/02 13:23:27;;;;;;;5.32;3.15;;;;;;;29.79;38.83;100679.66;5548767;32;33850;-87
2022/07/02 13:26:30;;;;;;;3.78;3.45;;;;;;;29.84;38.25;100679.91;5548850;32;33539;-87
2022/07/02 13:29:33;;;;;;;4.70;3.83;;;;;;;29.39;39.42;100675.47;5546849;32;34396;-87
2022/07/02 13:32:36;;;;;;;4.30;3.53;;;;;;;29.63;39.18;100680.78;5546755;32;33805;-87
2022/07/02 13:35:38;;;;;;;5.80;3.40;;;;;;;29.44;38.48;100663.97;5547517;32;34044;-87
2022/07/02 13:38:41;;;;;;;4.97;3.30;;;;;;;29.59;39.29;100670.25;5533073;32;32727;-87
2022/07/02 13:41:44;;;;;;;4.60;3.20;;;;;;;29.53;38.70;100671.03;5546389;32;33599;-87
2022/07/02 13:44:47;;;;;;;3.40;3.10;;;;;;;29.30;39.40;100672.03;5547151;32;34477;-87
2022/07/02 13:47:49;;;;;;;7.62;3.37;;;;;;;29.05;39.68;100671.50;5547407;32;33780;-87
2022/07/02 13:50:52;;;;;;;4.20;3.50;;;;;;;29.23;39.27;100665.66;5533382;32;32748;-87
2022/07/02 13:53:56;;;;;;;4.65;3.20;;;;;;;29.11;39.40;100675.38;5547209;32;34644;-86
2022/07/02 13:57:00;;;;;;;4.43;3.35;;;;;;;29.18;39.23;100660.75;5549911;32;33738;-85
2022/07/02 14:00:05;;;;;;;6.07;3.22;;;;;;;29.66;38.29;100669.47;5535426;32;33079;-86
2022/07/02 14:03:13;;;;;;;5.37;3.28;;;;;;;30.03;37.67;100656.53;5549663;32;33718;-86
2022/07/02 14:06:18;;;;;;;4.40;3.10;;;;;;;29.83;37.73;100657.19;5549691;32;34571;-86
2022/07/02 14:09:20;;;;;;;4.03;3.70;;;;;;;29.39;38.53;100652.75;5549160;32;33872;-86
2022/07/02 14:12:23;;;;;;;4.20;3.05;;;;;;;29.48;38.57;100657.09;5549732;32;33896;-86
2022/07/02 14:15:27;;;;;;;4.18;3.30;;;;;;;29.52;38.42;100661.13;5535268;32;32440;-86
2022/07/02 14:18:30;;;;;;;4.50;3.33;;;;;;;29.22;39.63;100652.19;5549157;32;33843;-86
2022/07/02 14:21:32;;;;;;;5.00;3.37;;;;;;;29.11;39.06;100648.91;5548992;32;34690;-86